Time;durP1;ratioP1;P1;durP2;ratioP2;P2;SDS_P1;SDS_P2;PMS_P1;PMS_P2;Temp;Humidity;BMP_temperature;BMP_pressure;BME280_temperature;BME280_humidity;BME280_pressure;Samples;Min_cycle;Max_cycle;Signal;HPM_P1;HPM_P2
2022/01/04 00:04:46;;;;;;;20.20;10.43;;;;;;;7.20;78.99;99085.66;8379918;33;20431;-76
2022/01/04 00:09:52;;;;;;;20.75;11.70;;;;;;;7.06;80.25;99077.00;8390035;33;20838;-76
2022/01/04 00:14:57;;;;;;;22.05;10.80;;;;;;;7.11;79.67;99071.28;8390525;33;20763;-75
2022/01/04 00:20:00;;;;;;;20.70;11.30;;;;;;;7.16;79.45;99074.41;8393348;33;20499;-76
2022/01/04 00:25:04;;;;;;;20.13;11.65;;;;;;;7.32;79.44;99060.50;8442701;33;21185;-74
2022/01/04 00:30:11;;;;;;;24.10;11.25;;;;;;;7.41;79.00;99049.03;8396655;33;20459;-74
2022/01/04 00:35:14;;;;;;;23.20;11.38;;;;;;;7.37;79.54;99036.06;8398024;33;21101;-75
2022/01/04 00:40:17;;;;;;;20.98;11.52;;;;;;;7.22;79.96;99022.28;8396030;33;20439;-75
2022/01/04 00:45:22;;;;;;;22.48;11.15;;;;;;;7.19;80.16;99018.03;8385896;33;20412;-76
2022/01/04 00:50:28;;;;;;;21.52;10.73;;;;;;;7.34;79.60;99009.63;8391275;33;20758;-75
2022/01/04 00:55:31;;;;;;;19.73;11.05;;;;;;;7.40;79.35;99011.75;8386062;33;20959;-75
2022/01/04 01:00:36;;;;;;;19.50;10.25;;;;;;;7.05;80.15;98997.06;8375579;33;20213;-76
2022/01/04 01:05:39;;;;;;;23.02;10.48;;;;;;;7.40;79.39;98993.88;8376271;33;21058;-75
2022/01/04 01:10:48;;;;;;;19.55;10.00;;;;;;;7.05;80.45;98986.38;8376840;33;20198;-75
2022/01/04 01:15:53;;;;;;;24.45;11.52;;;;;;;7.43;79.23;98985.63;8372850;33;21228;-75
2022/01/04 01:20:56;;;;;;;24.00;11.40;;;;;;;7.36;79.78;98975.63;8375344;33;20155;-76
2022/01/04 01:26:00;;;;;;;22.77;11.63;;;;;;;7.49;79.23;98955.69;8375886;33;20138;-76
2022/01/04 01:31:05;;;;;;;20.30;10.95;;;;;;;7.38;79.14;98945.13;8374644;33;20493;-75
2022/01/04 01:36:08;;;;;;;18.77;11.05;;;;;;;7.41;79.03;98931.50;8374680;33;20422;-76
2022/01/04 01:41:11;;;;;;;15.10;9.07;;;;;;;7.33;79.57;98941.19;8376967;33;20898;-76
2022/01/04 01:46:16;;;;;;;12.57;7.65;;;;;;;7.03;80.25;98927.78;8382307;33;20462;-75
2022/01/04 01:51:19;;;;;;;12.23;7.88;;;;;;;7.15;79.91;98912.47;8381777;33;20690;-75
2022/01/04 01:56:22;;;;;;;12.18;7.15;;;;;;;7.27;79.54;98914.03;8379249;33;20438;-75
2022/01/04 02:01:27;;;;;;;14.25;7.22;;;;;;;7.28;79.39;98910.38;8381300;33;20557;-74
2022/01/04 02:06:30;;;;;;;11.40;6.22;;;;;;;7.28;79.30;98888.19;8382153;33;20288;-75
2022/01/04 02:11:33;;;;;;;11.20;6.75;;;;;;;7.21;79.22;98893.25;8388481;33;20482;-75
2022/01/04 02:16:38;;;;;;;11.35;6.85;;;;;;;7.19;78.96;98889.84;8381750;33;22306;-76
2022/01/04 02:21:42;;;;;;;12.93;6.90;;;;;;;7.16;78.79;98874.13;8392797;33;20205;-75
2022/01/04 02:26:46;;;;;;;11.80;7.40;;;;;;;7.02;80.03;98870.03;8388089;33;20543;-75
2022/01/04 02:31:49;;;;;;;13.93;7.25;;;;;;;6.97;80.01;98879.44;8380462;33;20186;-76
2022/01/04 02:36:53;;;;;;;8.70;6.07;;;;;;;6.99;79.55;98870.31;8381278;33;20186;-75
2022/01/04 02:41:56;;;;;;;11.95;7.20;;;;;;;6.92;79.95;98861.16;8378559;33;20455;-76
2022/01/04 02:46:59;;;;;;;12.40;7.18;;;;;;;6.89;79.85;98861.44;8377595;33;20455;-75
2022/01/04 02:52:05;;;;;;;11.63;6.00;;;;;;;6.70;79.88;98867.53;8376704;33;20436;-75
2022/01/04 02:57:08;;;;;;;11.05;5.63;;;;;;;6.69;80.28;98838.31;8377252;33;20425;-75
2022/01/04 03:02:11;;;;;;;9.95;5.22;;;;;;;6.68;79.91;98834.81;8376700;33;20504;-75
2022/01/04 03:07:16;;;;;;;12.98;6.75;;;;;;;7.07;78.42;98824.19;8377539;33;20185;-75
2022/01/04 03:12:19;;;;;;;11.25;6.18;;;;;;;6.89;78.99;98818.72;8334570;33;20419;-75
2022/01/04 03:17:22;;;;;;;12.88;7.13;;;;;;;6.69;80.06;98823.16;8320263;33;20453;-75
2022/01/04 03:22:27;;;;;;;11.52;6.68;;;;;;;6.34;82.63;98810.28;8322504;33;20467;-75
2022/01/04 03:27:31;;;;;;;11.55;6.38;;;;;;;6.26;83.88;98804.78;8324436;33;20469;-75
2022/01/04 03:32:34;;;;;;;14.88;7.80;;;;;;;6.18;84.60;98800.13;8332417;33;20202;-75
2022/01/04 03:37:38;;;;;;;11.63;7.20;;;;;;;5.87;85.42;98794.81;8319945;33;21487;-76
2022/01/04 03:42:41;;;;;;;13.07;6.53;;;;;;;6.20;84.86;98787.53;8316761;33;20448;-75
2022/01/04 03:47:45;;;;;;;13.15;8.25;;;;;;;6.17;84.86;98783.28;8318687;33;20422;-75
2022/01/04 03:52:49;;;;;;;18.10;8.23;;;;;;;5.92;86.38;98770.41;8316072;33;20471;-75
2022/01/04 03:57:52;;;;;;;15.13;8.20;;;;;;;6.18;86.02;98749.47;8315887;33;20683;-75
2022/01/04 04:02:55;;;;;;;15.45;7.97;;;;;;;6.08;85.79;98740.59;8317229;33;20186;-75
2022/01/04 04:08:00;;;;;;;12.65;7.18;;;;;;;6.03;85.79;98737.50;8321479;33;20507;-75
2022/01/04 04:13:03;;;;;;;14.50;8.35;;;;;;;5.91;85.77;98724.28;8321493;33;20250;-75
2022/01/04 04:18:06;;;;;;;16.52;8.57;;;;;;;5.98;85.59;98697.94;8319491;33;20547;-75
2022/01/04 04:23:11;;;;;;;15.25;8.48;;;;;;;6.09;84.85;98700.50;8324127;33;20506;-75
2022/01/04 04:28:15;;;;;;;17.60;9.57;;;;;;;5.92;84.71;98691.34;8323929;33;20531;-75
2022/01/04 04:33:18;;;;;;;16.80;9.32;;;;;;;6.02;84.57;98672.69;8321333;33;20186;-75
2022/01/04 04:38:22;;;;;;;19.48;9.27;;;;;;;6.04;84.37;98672.56;8321444;33;20143;-75
2022/01/04 04:43:25;;;;;;;19.90;10.77;;;;;;;6.20;83.71;98666.66;8321411;33;20461;-76
2022/01/04 04:48:29;;;;;;;16.05;8.48;;;;;;;6.09;83.46;98655.16;8321259;33;21182;-75
2022/01/04 04:53:33;;;;;;;19.83;9.07;;;;;;;6.26;83.03;98632.31;8321003;33;20191;-75
2022/01/04 04:58:36;;;;;;;14.25;8.70;;;;;;;6.06;83.67;98630.59;8317749;33;20627;-75
2022/01/04 05:03:39;;;;;;;21.42;10.48;;;;;;;6.17;83.17;98615.34;8316755;33;20425;-75
2022/01/04 05:08:43;;;;;;;15.70;8.05;;;;;;;5.84;84.01;98613.91;8312966;33;20435;-75
2022/01/04 05:13:47;;;;;;;20.88;9.15;;;;;;;5.89;83.59;98616.13;8311481;33;20443;-75
2022/01/04 05:18:50;;;;;;;18.15;8.82;;;;;;;5.90;83.30;98613.34;8313838;33;20194;-75
2022/01/04 05:23:55;;;;;;;18.90;10.23;;;;;;;5.89;82.54;98595.66;8319137;33;20163;-75
2022/01/04 05:28:58;;;;;;;17.88;9.77;;;;;;;6.08;82.27;98594.00;8315710;33;20191;-75
2022/01/04 05:34:05;;;;;;;19.63;10.98;;;;;;;6.11;82.05;98585.72;8314121;33;20175;-75
2022/01/04 05:39:09;;;;;;;20.33;10.43;;;;;;;6.11;82.02;98575.03;8310795;33;20183;-75
2022/01/04 05:44:12;;;;;;;19.65;10.57;;;;;;;6.24;81.35;98564.13;8312445;33;20972;-75
2022/01/04 05:49:15;;;;;;;23.58;11.18;;;;;;;6.15;81.69;98571.13;8313762;33;21325;-75
2022/01/04 05:54:20;;;;;;;19.58;10.18;;;;;;;5.91;82.87;98574.19;8316070;33;20912;-75
2022/01/04 05:59:23;;;;;;;20.83;10.52;;;;;;;6.31;81.50;98574.09;8316150;33;20198;-75
2022/01/04 06:04:26;;;;;;;22.15;10.25;;;;;;;6.21;81.61;98583.91;8312030;33;20252;-75
2022/01/04 06:09:40;;;;;;;17.52;9.90;;;;;;;6.20;81.43;98568.91;8313987;33;20179;-75
2022/01/04 06:14:52;;;;;;;22.25;10.93;;;;;;;6.05;82.08;98568.47;8312664;33;20269;-75
2022/01/04 06:19:57;;;;;;;20.98;11.38;;;;;;;6.18;81.38;98552.19;8315343;33;20641;-75
2022/01/04 06:25:02;;;;;;;22.00;9.93;;;;;;;5.97;82.37;98551.47;8319651;33;22133;-75
2022/01/04 06:30:06;;;;;;;22.10;10.63;;;;;;;5.90;82.78;98559.22;8319531;33;20945;-76
2022/01/04 06:35:10;;;;;;;23.27;11.23;;;;;;;6.12;81.51;98531.44;8315145;33;20440;-75
2022/01/04 06:40:15;;;;;;;22.00;10.85;;;;;;;6.14;81.68;98527.66;8313630;33;20183;-76
2022/01/04 06:45:18;;;;;;;20.90;10.50;;;;;;;6.04;81.70;98520.63;8313724;33;20471;-76
2022/01/04 06:50:21;;;;;;;21.55;11.15;;;;;;;6.10;81.65;98518.22;8316975;33;20155;-75
2022/01/04 06:55:25;;;;;;;21.65;11.45;;;;;;;6.04;81.99;98518.81;8322280;33;20201;-76
2022/01/04 07:00:28;;;;;;;22.55;10.60;;;;;;;6.06;81.58;98513.31;8323336;33;20467;-75
2022/01/04 07:05:33;;;;;;;22.65;11.35;;;;;;;5.88;82.50;98519.34;8323100;33;20854;-74
2022/01/04 07:10:37;;;;;;;22.38;11.55;;;;;;;6.18;81.63;98509.53;8322833;33;20241;-75
2022/01/04 07:15:40;;;;;;;22.17;11.50;;;;;;;6.01;82.12;98497.78;8319689;33;20451;-76
2022/01/04 07:20:43;;;;;;;22.88;11.05;;;;;;;5.92;82.14;98507.47;8318173;33;20887;-75
2022/01/04 07:25:48;;;;;;;27.20;12.75;;;;;;;6.15;81.45;98505.31;8317782;33;20430;-76
2022/01/04 07:30:51;;;;;;;23.73;12.35;;;;;;;6.14;81.54;98509.00;8314144;33;20193;-76
2022/01/04 07:35:54;;;;;;;26.58;13.45;;;;;;;6.22;81.13;98518.09;8316875;33;20558;-75
2022/01/04 07:41:03;;;;;;;28.25;13.75;;;;;;;6.27;81.17;98530.00;8318823;33;20201;-75
2022/01/04 07:46:06;;;;;;;25.25;12.00;;;;;;;5.99;82.03;98509.56;8321316;33;20671;-75
2022/01/04 07:51:11;;;;;;;24.55;12.25;;;;;;;5.97;82.31;98514.16;8324140;33;20525;-75
2022/01/04 07:56:15;;;;;;;25.33;12.30;;;;;;;5.92;82.32;98504.78;8321879;33;20550;-75
2022/01/04 08:01:18;;;;;;;33.60;14.20;;;;;;;6.14;82.01;98493.00;8316928;33;20194;-76
2022/01/04 08:06:21;;;;;;;32.28;14.35;;;;;;;5.86;82.89;98493.84;8336649;33;20461;-75
2022/01/04 08:11:26;;;;;;;31.23;15.23;;;;;;;6.03;82.52;98489.63;8375087;33;20435;-76
2022/01/04 08:16:30;;;;;;;34.38;15.38;;;;;;;6.10;82.37;98474.75;8375560;33;20404;-75
2022/01/04 08:21:33;;;;;;;28.42;15.30;;;;;;;6.06;82.37;98470.66;8377001;33;20201;-75
2022/01/04 08:26:37;;;;;;;30.27;14.75;;;;;;;6.09;82.26;98463.25;8372577;33;20229;-76
2022/01/04 08:31:40;;;;;;;33.80;14.80;;;;;;;6.06;82.25;98466.22;8346653;33;20431;-76
2022/01/04 08:36:44;;;;;;;35.35;14.50;;;;;;;6.33;81.36;98460.09;8362656;33;20421;-75
2022/01/04 08:41:50;;;;;;;32.58;14.40;;;;;;;6.31;80.70;98445.25;8374687;33;20602;-76
2022/01/04 08:46:53;;;;;;;31.35;14.77;;;;;;;6.36;80.79;98430.50;8370044;33;20182;-77
2022/01/04 08:51:56;;;;;;;28.75;13.15;;;;;;;6.18;81.33;98430.41;8409849;33;20411;-75
2022/01/04 08:57:01;;;;;;;31.17;14.70;;;;;;;6.12;81.35;98433.63;8375705;33;20432;-76
2022/01/04 09:02:04;;;;;;;28.98;12.88;;;;;;;6.09;81.46;98423.28;8373744;33;20489;-76
2022/01/04 09:07:08;;;;;;;33.45;14.32;;;;;;;6.10;81.92;98443.59;8367120;33;20149;-77
2022/01/04 09:12:18;;;;;;;26.88;14.07;;;;;;;6.32;80.96;98430.94;8405109;33;20285;-76
2022/01/04 09:22:43;;;;;;;26.30;12.90;;;;;;;6.33;80.66;98413.94;8391448;33;20198;-76
2022/01/04 09:27:48;;;;;;;28.80;13.57;;;;;;;6.34;80.46;98427.13;8393434;33;20425;-76
2022/01/04 09:32:52;;;;;;;24.52;11.90;;;;;;;5.86;82.10;98435.22;8397126;33;20151;-76
2022/01/04 09:37:55;;;;;;;23.73;11.90;;;;;;;5.98;81.54;98427.91;8401193;33;20536;-76
2022/01/04 09:43:01;;;;;;;21.33;10.50;;;;;;;5.89;81.58;98450.91;8399657;33;20418;-75
2022/01/04 09:48:05;;;;;;;23.88;11.20;;;;;;;6.13;80.68;98458.47;8393050;33;20494;-76
2022/01/04 09:53:12;;;;;;;26.92;12.50;;;;;;;5.97;81.42;98464.38;8393418;33;21791;-75
2022/01/04 09:58:18;;;;;;;30.83;12.77;;;;;;;6.07;80.83;98459.88;8400493;33;20148;-75
2022/01/04 10:03:27;;;;;;;24.67;11.52;;;;;;;6.41;79.75;98448.72;8388047;33;20186;-75
2022/01/04 10:08:31;;;;;;;20.42;10.30;;;;;;;6.15;80.43;98433.34;8398215;33;20435;-74
2022/01/04 10:13:35;;;;;;;26.08;12.73;;;;;;;6.41;79.32;98422.03;8406230;33;20189;-77
2022/01/04 10:18:38;;;;;;;21.02;11.88;;;;;;;6.08;79.58;98423.41;8403024;33;20473;-75
2022/01/04 10:23:49;;;;;;;28.77;11.15;;;;;;;5.93;80.46;98404.38;8400713;33;20454;-74
2022/01/04 10:28:53;;;;;;;24.92;11.77;;;;;;;6.17;80.30;98404.72;8407728;33;20185;-75
2022/01/04 10:33:57;;;;;;;24.42;12.07;;;;;;;6.22;79.48;98414.09;8429350;33;20474;-76
2022/01/04 10:39:09;;;;;;;23.92;12.30;;;;;;;6.42;79.36;98409.53;8404496;33;20565;-76
2022/01/04 10:44:14;;;;;;;28.30;12.10;;;;;;;6.48;78.83;98417.81;8399734;33;20435;-76
2022/01/04 10:49:20;;;;;;;19.35;12.10;;;;;;;6.34;79.53;98399.63;8407948;33;20361;-75
2022/01/04 10:54:24;;;;;;;25.05;12.93;;;;;;;6.20;79.91;98368.09;8353341;33;20702;-76
2022/01/04 10:59:30;;;;;;;27.08;13.55;;;;;;;6.02;80.53;98387.50;8339917;33;20147;-75
2022/01/04 11:04:33;;;;;;;30.38;14.90;;;;;;;6.17;80.00;98388.75;8319079;34;20154;-76
2022/01/04 11:09:36;;;;;;;25.90;14.50;;;;;;;5.76;81.05;98381.97;8315961;34;20417;-76
2022/01/04 11:14:42;;;;;;;28.97;14.87;;;;;;;6.33;79.31;98368.59;8340232;33;20424;-75
2022/01/04 11:19:45;;;;;;;23.10;13.98;;;;;;;6.22;79.30;98358.97;8319762;34;20712;-76
2022/01/04 11:24:48;;;;;;;27.40;15.05;;;;;;;6.35;79.00;98351.47;8316044;33;21678;-75
2022/01/04 11:29:58;;;;;;;27.52;15.93;;;;;;;6.40;79.01;98351.03;8331868;33;20559;-75
2022/01/04 11:35:12;;;;;;;30.05;14.40;;;;;;;6.27;79.33;98347.88;8331720;33;20240;-75
2022/01/04 11:40:23;;;;;;;25.33;14.00;;;;;;;6.34;78.91;98348.97;8361513;33;20538;-76
2022/01/04 11:45:44;;;;;;;29.27;14.60;;;;;;;6.47;78.55;98353.94;8368740;33;20575;-75
2022/01/04 11:50:47;;;;;;;30.27;14.90;;;;;;;6.26;79.23;98341.69;8364225;33;20556;-74
2022/01/04 11:55:53;;;;;;;27.50;15.63;;;;;;;6.05;80.83;98349.91;8367616;33;20532;-76
2022/01/04 12:01:06;;;;;;;28.23;15.35;;;;;;;6.18;80.23;98360.25;8371757;33;20408;-77
2022/01/04 12:06:11;;;;;;;23.80;14.20;;;;;;;6.09;80.78;98347.81;8386029;33;20552;-74
2022/01/04 12:11:23;;;;;;;27.15;13.45;;;;;;;6.15;79.86;98358.72;8391509;33;20153;-76
2022/01/04 12:16:38;;;;;;;29.50;15.15;;;;;;;6.32;79.86;98338.44;8389466;33;20178;-76
2022/01/04 12:21:48;;;;;;;26.58;14.93;;;;;;;6.11;80.33;98333.31;8377451;33;20753;-74
2022/01/04 12:27:08;;;;;;;20.83;9.68;;;;;;;5.71;82.37;98338.91;8373368;33;20182;-74
2022/01/04 12:32:24;;;;;;;31.77;16.40;;;;;;;6.24;80.95;98327.66;8372476;33;20451;-75
2022/01/04 12:37:27;;;;;;;20.20;12.38;;;;;;;5.85;82.74;98322.47;8370951;33;20247;-76
2022/01/04 12:42:30;;;;;;;30.25;16.40;;;;;;;6.05;82.75;98309.91;8369701;33;20260;-76
2022/01/04 12:47:35;;;;;;;32.00;14.05;;;;;;;6.07;82.17;98315.94;8370324;33;20204;-76
2022/01/04 12:52:39;;;;;;;31.45;15.40;;;;;;;6.11;82.05;98348.47;8368054;33;20404;-75
2022/01/04 12:57:42;;;;;;;22.50;12.40;;;;;;;6.23;81.60;98333.16;8369619;33;20463;-77
2022/01/04 13:02:46;;;;;;;29.55;15.65;;;;;;;5.90;83.86;98344.19;8371693;33;20305;-76
2022/01/04 13:07:49;;;;;;;23.17;10.80;;;;;;;5.51;87.06;98343.41;8374043;33;21522;-76
2022/01/04 13:12:52;;;;;;;31.58;15.88;;;;;;;5.59;87.95;98334.72;8377497;33;22037;-76
2022/01/04 13:17:58;;;;;;;28.35;14.40;;;;;;;5.59;88.14;98326.72;8378232;33;20432;-76
2022/01/04 13:23:06;;;;;;;34.08;16.75;;;;;;;5.90;87.08;98330.88;8375321;33;20237;-76
2022/01/04 13:28:09;;;;;;;34.05;15.90;;;;;;;5.56;87.49;98332.34;8374853;33;20474;-75
2022/01/04 13:33:14;;;;;;;29.77;16.27;;;;;;;5.87;86.58;98328.50;8374256;33;20471;-75
2022/01/04 13:38:21;;;;;;;20.23;11.20;;;;;;;5.63;86.79;98328.13;8376630;33;20189;-76
2022/01/04 13:43:31;;;;;;;27.70;13.90;;;;;;;5.83;85.89;98316.44;8373511;33;20174;-76
2022/01/04 13:48:38;;;;;;;26.38;13.68;;;;;;;6.04;84.10;98296.75;8370837;33;26506;-76
2022/01/04 13:53:43;;;;;;;23.02;12.23;;;;;;;6.27;82.63;98291.88;8370178;33;20466;-75
2022/01/04 13:58:52;;;;;;;17.65;10.43;;;;;;;5.81;82.25;98307.75;8368870;33;20450;-76
2022/01/04 14:03:59;;;;;;;20.17;11.05;;;;;;;6.33;81.33;98316.09;8369693;33;20473;-76
2022/01/04 14:09:07;;;;;;;17.45;9.35;;;;;;;6.28;80.65;98315.75;8392900;33;20219;-76
2022/01/04 14:14:14;;;;;;;18.23;10.25;;;;;;;6.45;80.87;98311.44;8385262;33;20678;-77
2022/01/04 14:19:21;;;;;;;17.67;9.70;;;;;;;6.06;80.77;98319.63;8372163;33;20150;-75
2022/01/04 14:24:49;;;;;;;17.75;8.65;;;;;;;5.95;81.21;98325.09;8358453;33;20701;-76
2022/01/04 14:29:59;;;;;;;15.52;9.10;;;;;;;6.06;81.34;98321.41;8321849;34;20565;-77
2022/01/04 14:35:10;;;;;;;13.10;6.97;;;;;;;6.05;81.53;98327.75;8341652;33;20558;-75
2022/01/04 14:40:16;;;;;;;14.15;8.02;;;;;;;5.43;86.03;98338.81;8345548;33;20197;-75
2022/01/04 14:45:21;;;;;;;16.67;8.18;;;;;;;5.48;89.85;98371.16;8381219;33;21282;-76
2022/01/04 14:50:26;;;;;;;5.20;3.28;;;;;;;4.50;87.85;98387.94;8379839;33;20324;-75
2022/01/04 14:55:30;;;;;;;6.63;3.20;;;;;;;4.75;88.72;98391.09;8381894;33;20182;-76
2022/01/04 15:00:33;;;;;;;5.88;3.22;;;;;;;4.74;89.44;98400.88;8397493;33;20597;-75
2022/01/04 15:05:38;;;;;;;3.90;2.38;;;;;;;4.80;89.24;98384.41;8406611;33;20193;-76
2022/01/04 15:10:41;;;;;;;3.00;2.25;;;;;;;4.67;88.95;98391.78;8403065;33;20220;-76
2022/01/04 15:15:44;;;;;;;3.28;2.35;;;;;;;4.54;89.17;98402.63;8398060;33;20248;-75
2022/01/04 15:20:48;;;;;;;4.13;2.00;;;;;;;4.34;90.03;98406.19;8396750;33;20169;-75
2022/01/04 15:25:53;;;;;;;3.38;1.90;;;;;;;3.90;90.60;98405.53;8390533;33;20478;-77
2022/01/04 15:30:56;;;;;;;3.90;1.75;;;;;;;4.47;89.75;98409.47;8411594;33;20445;-75
2022/01/04 15:36:01;;;;;;;2.75;1.88;;;;;;;4.24;89.62;98415.94;8412218;33;20518;-75
2022/01/04 15:41:04;;;;;;;1.98;1.80;;;;;;;4.49;88.98;98412.00;8401779;33;20627;-76
2022/01/04 15:46:07;;;;;;;2.80;2.55;;;;;;;4.64;88.77;98425.78;8400798;33;20432;-75
2022/01/04 15:51:13;;;;;;;2.95;2.10;;;;;;;4.58;88.62;98433.31;8402997;33;20919;-74
2022/01/04 15:56:16;;;;;;;4.78;2.67;;;;;;;4.60;88.65;98436.66;8421275;33;20260;-76
2022/01/04 16:01:21;;;;;;;4.20;2.40;;;;;;;4.59;88.79;98444.78;8420768;33;20475;-73
2022/01/04 16:06:25;;;;;;;5.30;2.60;;;;;;;4.64;89.01;98449.72;8391856;33;20205;-73
2022/01/04 16:11:28;;;;;;;8.00;3.38;;;;;;;4.61;88.34;98459.63;8375008;33;20411;-73
2022/01/04 16:16:37;;;;;;;3.95;2.15;;;;;;;4.95;88.61;98469.97;8361164;33;20435;-74
2022/01/04 16:21:45;;;;;;;4.80;2.92;;;;;;;4.55;89.09;98489.44;8359666;33;20503;-75
2022/01/04 16:26:52;;;;;;;5.20;3.08;;;;;;;4.78;88.14;98499.88;8368471;33;20218;-73
2022/01/04 16:31:58;;;;;;;4.90;3.15;;;;;;;4.47;88.01;98499.00;8365592;33;20532;-73
2022/01/04 16:37:04;;;;;;;8.60;3.90;;;;;;;4.78;88.14;98502.53;8368575;33;20191;-73
2022/01/04 16:42:07;;;;;;;6.70;4.22;;;;;;;4.62;87.89;98511.84;8372497;33;20189;-74
2022/01/04 16:47:10;;;;;;;8.30;4.25;;;;;;;4.57;88.06;98521.19;8370047;33;20186;-74
2022/01/04 16:52:15;;;;;;;6.57;4.22;;;;;;;4.64;87.11;98527.66;8362980;33;20237;-74
2022/01/04 16:57:18;;;;;;;8.18;4.57;;;;;;;4.57;87.12;98521.19;8372229;33;20205;-75
2022/01/04 17:02:21;;;;;;;11.65;5.18;;;;;;;4.67;86.96;98537.22;8365212;33;20189;-74
2022/01/04 17:07:39;;;;;;;7.93;4.93;;;;;;;4.78;86.25;98545.09;8339648;34;20418;-75
2022/01/04 17:15:33;;;;;;;7.35;5.45;;;;;;;4.86;85.79;98539.97;8336015;34;21942;-76
2022/01/04 17:18:19;;;;;;;10.50;5.78;;;;;;;4.95;85.93;98536.50;8356584;33;20440;-74
2022/01/04 17:23:24;;;;;;;11.88;5.88;;;;;;;4.81;85.10;98543.00;8363389;33;20437;-75
2022/01/04 17:28:27;;;;;;;6.32;4.10;;;;;;;4.40;84.74;98549.22;8343428;33;20797;-75
2022/01/04 17:33:30;;;;;;;4.78;3.40;;;;;;;4.15;83.77;98555.75;8366750;33;20288;-75
2022/01/04 17:38:35;;;;;;;6.93;4.10;;;;;;;4.46;83.31;98548.69;8342620;33;20956;-74
2022/01/04 17:43:38;;;;;;;8.23;4.40;;;;;;;4.51;83.43;98557.13;8335720;34;20166;-75
2022/01/04 17:48:41;;;;;;;5.20;3.55;;;;;;;4.58;83.82;98565.41;8269507;34;20246;-74
2022/01/04 17:53:46;;;;;;;5.60;4.10;;;;;;;4.45;82.86;98562.97;8321801;33;21081;-75
2022/01/04 17:59:01;;;;;;;4.30;3.05;;;;;;;4.37;82.58;98562.75;8368522;33;20432;-75
2022/01/04 18:04:04;;;;;;;5.10;2.88;;;;;;;4.31;83.12;98555.31;8374537;33;20139;-76
2022/01/04 18:09:08;;;;;;;8.05;3.72;;;;;;;4.17;82.60;98557.31;8372849;33;20260;-75
2022/01/04 18:14:12;;;;;;;4.78;2.65;;;;;;;4.12;82.44;98559.50;8288969;34;20500;-75
2022/01/04 18:19:15;;;;;;;2.65;2.33;;;;;;;3.99;81.88;98563.31;8363830;33;20476;-75
2022/01/04 18:24:19;;;;;;;3.60;2.50;;;;;;;3.90;82.13;98555.13;8333108;33;20460;-75
2022/01/04 18:29:23;;;;;;;5.97;2.80;;;;;;;3.95;83.16;98552.09;8350657;33;20934;-75
2022/01/04 18:34:26;;;;;;;4.85;2.95;;;;;;;3.68;82.25;98573.78;8353250;33;20184;-75
2022/01/04 18:39:30;;;;;;;3.40;2.45;;;;;;;3.40;81.06;98581.34;8396846;33;20225;-75
2022/01/04 18:44:36;;;;;;;4.63;2.50;;;;;;;3.26;81.11;98587.75;8393713;33;20590;-75
2022/01/04 18:49:39;;;;;;;7.45;2.88;;;;;;;3.25;81.89;98590.50;8411415;33;20840;-75
2022/01/04 18:54:44;;;;;;;5.38;3.13;;;;;;;3.22;81.35;98596.06;8427908;33;20486;-75
2022/01/04 18:59:47;;;;;;;8.02;3.35;;;;;;;3.08;81.42;98598.94;8426311;33;20887;-75
2022/01/04 19:04:50;;;;;;;3.95;2.83;;;;;;;3.26;81.67;98605.44;8427112;33;20634;-76
2022/01/04 19:09:55;;;;;;;6.28;2.63;;;;;;;3.20;82.07;98609.44;8427370;33;20426;-75
2022/01/04 19:14:58;;;;;;;5.03;2.60;;;;;;;3.13;82.05;98620.66;8420164;33;20909;-75
2022/01/04 19:20:01;;;;;;;3.97;2.75;;;;;;;3.20;82.11;98625.34;8373921;33;20178;-75
2022/01/04 19:25:10;;;;;;;6.18;3.63;;;;;;;2.98;81.86;98628.00;8384608;33;20332;-75
2022/01/04 19:30:17;;;;;;;4.82;3.10;;;;;;;3.27;82.19;98631.03;8330589;33;20451;-75
2022/01/04 19:40:42;;;;;;;10.00;4.75;;;;;;;3.19;81.58;98620.19;8405282;33;20511;-76
2022/01/04 19:45:51;;;;;;;6.35;3.40;;;;;;;3.09;81.23;98632.47;8415534;33;20439;-75
2022/01/04 19:50:58;;;;;;;6.43;3.05;;;;;;;3.08;81.26;98636.09;8401008;33;20176;-75
2022/01/04 19:56:03;;;;;;;4.70;2.70;;;;;;;2.66;80.90;98633.97;8389811;33;20436;-75
2022/01/04 20:01:07;;;;;;;5.60;2.80;;;;;;;2.61;80.62;98636.13;8365856;33;20151;-76
2022/01/04 20:06:11;;;;;;;5.03;2.70;;;;;;;2.86;80.20;98626.31;8376007;33;20570;-76
2022/01/04 20:11:16;;;;;;;7.40;2.95;;;;;;;2.98;80.55;98635.94;8395036;33;20328;-74
2022/01/04 20:16:20;;;;;;;4.63;2.60;;;;;;;3.06;80.52;98637.03;8398990;33;20958;-76
2022/01/04 20:21:24;;;;;;;8.00;2.58;;;;;;;2.95;80.31;98629.06;8391065;33;20181;-74
2022/01/04 20:26:29;;;;;;;6.03;2.60;;;;;;;2.96;79.97;98629.91;8390647;33;20248;-75
2022/01/04 20:31:32;;;;;;;5.63;2.55;;;;;;;2.87;80.65;98627.97;8443648;33;20311;-76
2022/01/04 20:36:36;;;;;;;5.50;3.08;;;;;;;2.82;80.88;98618.56;8437076;33;20200;-76
2022/01/04 20:41:41;;;;;;;5.63;3.80;;;;;;;2.96;81.04;98628.13;8416213;33;20193;-75
2022/01/04 20:46:44;;;;;;;9.45;3.58;;;;;;;2.93;80.54;98632.81;8428200;33;20150;-75
2022/01/04 20:51:47;;;;;;;3.97;3.08;;;;;;;2.97;80.51;98640.41;8429255;33;20425;-75
2022/01/04 20:56:52;;;;;;;4.88;3.10;;;;;;;3.17;81.26;98636.22;8416838;33;20454;-76
2022/01/04 21:01:55;;;;;;;6.10;3.53;;;;;;;3.10;81.20;98650.94;8413049;33;20138;-76
2022/01/04 21:06:58;;;;;;;4.00;3.53;;;;;;;2.98;81.37;98651.88;8407939;33;20510;-76
2022/01/04 21:12:03;;;;;;;4.07;3.60;;;;;;;3.01;81.16;98662.22;8385375;33;21928;-76
2022/01/04 21:17:06;;;;;;;7.32;3.60;;;;;;;3.09;81.13;98667.78;8391217;33;20421;-75
2022/01/04 21:22:10;;;;;;;8.27;3.92;;;;;;;2.93;80.83;98660.16;8413635;33;20424;-76
2022/01/04 21:27:14;;;;;;;6.63;3.63;;;;;;;3.06;80.92;98652.13;8436350;33;20424;-75
2022/01/04 21:32:17;;;;;;;11.30;4.05;;;;;;;3.10;81.06;98660.66;8428914;33;20193;-77
2022/01/04 21:37:20;;;;;;;4.93;3.65;;;;;;;3.11;80.56;98654.41;8427588;33;20223;-75
2022/01/04 21:42:24;;;;;;;9.80;2.70;;;;;;;3.14;80.62;98662.13;8427737;33;20315;-75
2022/01/04 21:47:27;;;;;;;6.22;3.33;;;;;;;3.12;80.81;98664.91;8425506;33;20403;-76
2022/01/04 21:52:30;;;;;;;6.50;3.72;;;;;;;2.82;80.61;98658.34;8421789;33;20462;-75
2022/01/04 21:57:35;;;;;;;5.93;3.42;;;;;;;2.97;81.33;98660.78;8417050;33;20500;-76
2022/01/04 22:02:38;;;;;;;8.77;3.78;;;;;;;3.08;80.79;98649.34;8419454;33;20430;-76
2022/01/04 22:07:41;;;;;;;5.80;3.83;;;;;;;3.06;80.80;98668.03;8418063;33;20443;-75
2022/01/04 22:12:46;;;;;;;7.78;3.88;;;;;;;2.94;80.27;98663.69;8413670;33;20935;-75
2022/01/04 22:17:49;;;;;;;12.25;3.60;;;;;;;2.96;80.52;98678.53;8407304;33;20196;-75
2022/01/04 22:22:52;;;;;;;8.18;3.50;;;;;;;2.99;80.73;98678.28;8404500;33;20198;-75
2022/01/04 22:27:56;;;;;;;9.88;4.40;;;;;;;2.89;81.08;98673.81;8409257;33;20280;-77
2022/01/04 22:32:59;;;;;;;8.52;3.63;;;;;;;2.88;80.94;98688.00;8397704;33;20421;-74
2022/01/04 22:38:03;;;;;;;9.77;3.90;;;;;;;2.89;80.76;98677.28;8410976;33;20926;-75
2022/01/04 22:43:08;;;;;;;7.30;3.90;;;;;;;2.63;81.37;98675.75;8406523;33;20523;-75
2022/01/04 22:48:11;;;;;;;6.97;3.97;;;;;;;2.68;81.47;98682.41;8431846;33;20142;-74
2022/01/04 22:53:14;;;;;;;11.23;3.90;;;;;;;2.75;81.46;98691.59;8431516;33;20181;-75
2022/01/04 22:58:19;;;;;;;8.18;4.82;;;;;;;2.78;81.65;98695.81;8432332;33;20150;-75
2022/01/04 23:03:22;;;;;;;8.30;4.22;;;;;;;2.88;81.05;98703.91;8431313;33;20458;-75
2022/01/04 23:08:25;;;;;;;6.30;4.70;;;;;;;2.80;81.16;98704.53;8432812;33;20536;-77
2022/01/04 23:13:29;;;;;;;5.68;3.67;;;;;;;2.60;81.49;98701.53;8431363;33;20472;-75
2022/01/04 23:18:33;;;;;;;5.50;4.35;;;;;;;2.68;81.35;98714.22;8423524;33;20433;-75
2022/01/04 23:23:36;;;;;;;7.95;4.55;;;;;;;2.60;81.24;98711.28;8420966;33;20145;-76
2022/01/04 23:28:40;;;;;;;9.77;5.20;;;;;;;2.75;81.75;98723.41;8422294;33;20193;-75
2022/01/04 23:33:43;;;;;;;8.45;4.88;;;;;;;2.64;81.19;98722.53;8427097;33;21168;-75
2022/01/04 23:38:46;;;;;;;11.18;4.40;;;;;;;2.70;81.23;98712.31;8428329;33;20422;-75
2022/01/04 23:43:51;;;;;;;8.10;4.78;;;;;;;2.71;81.41;98711.34;8425324;33;20425;-75
2022/01/04 23:48:54;;;;;;;8.68;4.32;;;;;;;2.70;81.39;98716.78;8422004;33;21555;-75
2022/01/04 23:53:57;;;;;;;7.45;4.50;;;;;;;2.57;81.53;98708.88;8423386;33;20672;-74
2022/01/04 23:59:01;;;;;;;8.30;4.35;;;;;;;2.42;81.99;98702.88;8432574;33;20816;-76
